Aérodrome :
LOGIN :

S'inscrire | Disclaimer

   EN    FR    IT 

 










Légende :    VFR   VFR Marginal   IFR   IFR Intensif   IFR Très Intensif
Visi : 
Plafond : 
>= 8 km
>= 3000ft
5 à 8 km
1000 à 3000 ft
1500m à 5 km
500 à 1000 ft
800 à 1500m
200 à 500 ft
< 800m
< 200 ft
Symboles :   Orages  Brouillard  Fortes neiges  Fortes précipitations  Vent > 20 kt
SIGMETs :   Divers  Orages  Givrage  Turbulence  Onde Orograph.  Cendres Volcan.







- Altitude de l'aérodrome : 15 ft
- Code IATA : FCO


LIRF - Roma Leonardo da Vinci Fiumicino

DERNIER METAR :
  • 131550Z 31002KT CAVOK 17/15 Q1028 NOSIG

METARs EXPIRÉS :
  • 131520Z 30003KT CAVOK 17/15 Q1028 NOSIG
  • 131450Z 30004KT CAVOK 18/15 Q1028 NOSIG
  • 131420Z 28005KT CAVOK 18/14 Q1028 NOSIG
  • 131350Z 28006KT 250V310 CAVOK 19/14 Q1027 NOSIG
  • 131320Z 28005KT 260V320 CAVOK 19/14 Q1028 NOSIG

TAF TAF LIRF
Valide du 13 à 12h jusqu'au 14 à 18h UTC


131100Z 1312/1418 VRB06KT CAVOK
BECMG 1321/1323 3000 BR
TEMPO 1401/1407 0500 FG BKN002
BECMG 1408/1410 8000
Pas de NOTAMs connus pour ce terrain.



MET'MAP, la Météo Aéronautique d'un coup d'oeil ! - Copyright ORBIFLY Décembre 2007 - Disclaimer

ORBIFLY MET'MAP TEAM :

Programmation & Développement : Alexandra Zaïnal
Conception & Développement : Baudouin d'Aumeries
Co-Programmation & Développement : Marc-Olivier Méhu
Soutien technique & logistique : Manuel Goepfert

Contact : metmap@orbifly.com




SOURCES & CREDITS :

   NOAA